createdAt,value
2022-12-03T00:01:20.745Z,100870.44
2022-12-03T00:03:48.759Z,100877.22
2022-12-03T00:06:17.628Z,100877.44
2022-12-03T00:08:45.598Z,100881.78
2022-12-03T00:11:13.585Z,100874.56
2022-12-03T00:13:41.517Z,100880.84
2022-12-03T00:16:09.508Z,100873.81
2022-12-03T00:18:38.887Z,100876.34
2022-12-03T00:21:07.244Z,100873.81
2022-12-03T00:23:41.548Z,100880.84
2022-12-03T00:26:10.118Z,100879.03
2022-12-03T00:28:38.046Z,100879.97
2022-12-03T00:31:06.218Z,100878.53
2022-12-03T00:33:34.230Z,100879.81
2022-12-03T00:36:03.587Z,100887.81
2022-12-03T00:38:31.559Z,100888.31
2022-12-03T00:40:59.473Z,100879.38
2022-12-03T00:43:27.420Z,100886.16
2022-12-03T00:45:55.368Z,100905.53
2022-12-03T00:48:23.288Z,100901.41
2022-12-03T00:50:51.256Z,100898.13
2022-12-03T00:53:20.591Z,100902.81
2022-12-03T00:55:50.675Z,100899.41
2022-12-03T00:58:18.665Z,100904.25
2022-12-03T01:00:46.617Z,100911.75
2022-12-03T01:03:14.538Z,100903.03
2022-12-03T01:05:42.474Z,100912.41
2022-12-03T01:08:10.513Z,100906.00
2022-12-03T01:10:39.898Z,100911.09
2022-12-03T01:13:07.882Z,100913.25
2022-12-03T01:15:35.834Z,100916.88
2022-12-03T01:18:03.832Z,100907.94
2022-12-03T01:20:31.778Z,100921.97
2022-12-03T01:22:59.754Z,100913.84
2022-12-03T01:25:27.752Z,100917.50
2022-12-03T01:27:57.100Z,100912.03
2022-12-03T01:30:25.065Z,100908.31
2022-12-03T01:32:52.004Z,100911.81
2022-12-03T01:35:19.950Z,100910.03
2022-12-03T01:37:47.935Z,100909.38
2022-12-03T01:40:17.117Z,100909.75
2022-12-03T01:42:45.091Z,100910.72
2022-12-03T01:45:19.267Z,100883.16
2022-12-03T01:47:47.240Z,100912.25
2022-12-03T01:50:16.814Z,100909.69
2022-12-03T01:52:44.772Z,100914.81
2022-12-03T01:55:14.215Z,100916.72
2022-12-03T01:57:43.311Z,100918.88
2022-12-03T02:00:16.145Z,100919.28
2022-12-03T02:02:44.076Z,100922.69
2022-12-03T02:05:17.170Z,100920.50
2022-12-03T02:07:45.276Z,100925.91
2022-12-03T02:10:13.546Z,100929.94
2022-12-03T02:12:42.683Z,100933.13
2022-12-03T02:15:11.406Z,100926.50
2022-12-03T02:17:40.757Z,100934.97
2022-12-03T02:20:09.957Z,100935.72
2022-12-03T02:22:41.708Z,100933.31
2022-12-03T02:25:21.202Z,100941.28
2022-12-03T02:27:49.181Z,100913.34
2022-12-03T02:30:19.200Z,100947.22
2022-12-03T02:32:47.245Z,100935.66
2022-12-03T02:35:16.019Z,100941.63
2022-12-03T02:37:44.002Z,100942.25
2022-12-03T02:40:13.606Z,100950.13
2022-12-03T02:42:41.933Z,100940.09
2022-12-03T02:45:11.704Z,100946.16
2022-12-03T02:47:41.669Z,100947.13
2022-12-03T02:50:10.151Z,100942.94
2022-12-03T02:52:38.165Z,100942.47
2022-12-03T02:55:06.787Z,100944.16
2022-12-03T02:57:34.900Z,100930.97
2022-12-03T03:00:04.589Z,100924.78
2022-12-03T03:02:32.625Z,100931.59
2022-12-03T03:05:00.577Z,100923.91
2022-12-03T03:07:28.585Z,100930.28
2022-12-03T03:09:56.554Z,100920.50
2022-12-03T03:12:24.551Z,100928.00
2022-12-03T03:14:52.777Z,100926.28
2022-12-03T03:17:22.150Z,100921.91
2022-12-03T03:19:50.052Z,100920.97
2022-12-03T03:22:17.982Z,100926.28
2022-12-03T03:24:45.892Z,100922.66
2022-12-03T03:27:13.822Z,100920.09
2022-12-03T03:29:41.748Z,100930.31
2022-12-03T03:32:09.704Z,100928.66
2022-12-03T03:34:39.130Z,100928.66
2022-12-03T03:37:07.037Z,100928.41
2022-12-03T03:39:35.381Z,100924.69
2022-12-03T03:42:03.315Z,100928.41
2022-12-03T03:44:32.779Z,100932.78
2022-12-03T03:47:00.755Z,100929.25
2022-12-03T03:49:28.735Z,100936.41
2022-12-03T03:51:58.072Z,100934.69
2022-12-03T03:54:26.039Z,100944.28
2022-12-03T03:56:54.143Z,100942.34
2022-12-03T03:59:22.083Z,100939.81
2022-12-03T04:01:49.990Z,100948.66
2022-12-03T04:04:19.710Z,100952.06
2022-12-03T04:06:47.822Z,100953.88
2022-12-03T04:09:17.128Z,100952.66
2022-12-03T04:12:07.763Z,100955.56
2022-12-03T04:14:35.754Z,100959.19
2022-12-03T04:17:03.791Z,100962.81
2022-12-03T04:19:30.773Z,100962.06
2022-12-03T04:22:15.997Z,100970.59
2022-12-03T04:24:45.318Z,100970.59
2022-12-03T04:27:30.614Z,100972.72
2022-12-03T04:29:58.512Z,100970.41
2022-12-03T04:32:43.822Z,100978.03
2022-12-03T04:35:29.429Z,100978.88
2022-12-03T04:37:57.511Z,100980.97
2022-12-03T04:40:44.159Z,100978.44
2022-12-03T04:43:13.121Z,100980.13
2022-12-03T04:45:41.079Z,100987.41
2022-12-03T04:48:09.040Z,100989.09
2022-12-03T04:50:37.018Z,100999.53
2022-12-03T04:53:04.933Z,100994.28
2022-12-03T04:55:34.276Z,100991.63
2022-12-03T04:58:02.199Z,100995.91
2022-12-03T05:00:30.191Z,100988.88
2022-12-03T05:02:58.169Z,100985.34
2022-12-03T05:05:26.153Z,100982.59
2022-12-03T05:07:54.163Z,100980.78
2022-12-03T05:10:22.164Z,100986.94
2022-12-03T05:12:51.505Z,100981.53
2022-12-03T05:15:19.540Z,100985.25
2022-12-03T05:17:47.490Z,100992.50
2022-12-03T05:20:33.169Z,100983.25
2022-12-03T05:23:01.106Z,100977.94
2022-12-03T05:25:29.089Z,100976.88
2022-12-03T05:27:58.395Z,100981.22
2022-12-03T05:30:26.462Z,100988.22
2022-12-03T05:32:54.485Z,100984.09
2022-12-03T05:35:22.422Z,100983.03
2022-12-03T05:37:50.379Z,100983.75
2022-12-03T05:40:18.663Z,100986.31
2022-12-03T05:42:54.488Z,100994.84
2022-12-03T05:45:24.269Z,100991.06
2022-12-03T05:47:52.258Z,100993.63
2022-12-03T05:50:20.229Z,100988.59
2022-12-03T05:52:48.203Z,100983.25
2022-12-03T05:55:16.141Z,100991.81
2022-12-03T05:57:44.659Z,101002.56
2022-12-03T06:00:14.964Z,101006.94
2022-12-03T06:02:44.357Z,101008.66
2022-12-03T06:05:13.220Z,101015.69
2022-12-03T06:07:41.207Z,101013.28
2022-12-03T06:10:16.187Z,101011.97
2022-12-03T06:12:44.129Z,101010.81
2022-12-03T06:15:14.361Z,101018.56
2022-12-03T06:17:42.351Z,101029.09
2022-12-03T06:20:13.609Z,101026.13
2022-12-03T06:22:41.528Z,101025.66
2022-12-03T06:25:10.041Z,101026.91
2022-12-03T06:27:37.949Z,101024.16
2022-12-03T06:30:07.987Z,101022.63
2022-12-03T06:32:35.911Z,101032.53
2022-12-03T06:35:03.875Z,101019.94
2022-12-03T06:37:33.209Z,101022.63
2022-12-03T06:40:01.141Z,101023.47
2022-12-03T06:42:29.079Z,101028.59
2022-12-03T06:44:57.248Z,101025.34
2022-12-03T06:47:25.357Z,101026.16
2022-12-03T06:49:53.344Z,101034.22
2022-12-03T06:52:21.308Z,101030.34
2022-12-03T06:54:50.824Z,101023.72
2022-12-03T06:57:18.901Z,101023.06
2022-12-03T06:59:46.849Z,101021.84
2022-12-03T07:02:14.815Z,101019.13
2022-12-03T07:04:46.214Z,101015.44
2022-12-03T07:07:14.644Z,101012.09
2022-12-03T07:09:42.617Z,101012.47
2022-12-03T07:12:11.974Z,101009.91
2022-12-03T07:14:39.924Z,101014.81
2022-12-03T07:17:07.908Z,101010.94
2022-12-03T07:19:35.887Z,101021.16
2022-12-03T07:22:03.991Z,101024.84
2022-12-03T07:24:31.975Z,101035.06
2022-12-03T07:26:59.947Z,101038.63
2022-12-03T07:29:29.293Z,101039.84
2022-12-03T07:31:57.226Z,101035.09
2022-12-03T07:34:25.173Z,101037.28
2022-12-03T07:36:53.142Z,101030.47
2022-12-03T07:39:21.103Z,101036.22
2022-12-03T07:41:49.047Z,101030.75
2022-12-03T07:44:16.974Z,101031.97
2022-12-03T07:46:46.319Z,101033.44
2022-12-03T07:49:14.284Z,101045.88
2022-12-03T07:51:42.978Z,101041.50
2022-12-03T07:54:10.928Z,101040.00
2022-12-03T07:56:38.908Z,101034.16
2022-12-03T07:59:06.868Z,101033.09
2022-12-03T08:01:34.990Z,101039.72
2022-12-03T08:04:04.401Z,101045.38
2022-12-03T08:06:32.366Z,101045.38
2022-12-03T08:09:00.306Z,101042.59
2022-12-03T08:11:28.879Z,101031.75
2022-12-03T08:13:56.867Z,101040.53
2022-12-03T08:16:25.005Z,101037.38
2022-12-03T08:18:52.961Z,101037.16
2022-12-03T08:21:22.546Z,101039.56
2022-12-03T08:23:50.480Z,101037.16
2022-12-03T08:26:22.023Z,101035.06
2022-12-03T08:28:49.992Z,101038.47
2022-12-03T08:31:27.942Z,101032.91
2022-12-03T08:34:02.412Z,101036.66
2022-12-03T08:36:32.344Z,101034.47
2022-12-03T08:39:00.871Z,101040.53
2022-12-03T08:41:58.478Z,101026.69
2022-12-03T08:44:27.749Z,101039.03
2022-12-03T08:46:57.976Z,101031.75
2022-12-03T08:49:25.952Z,101047.69
2022-12-03T08:51:57.441Z,101040.53
2022-12-03T08:54:25.422Z,101038.31
2022-12-03T08:56:53.351Z,101032.22
2022-12-03T08:59:30.829Z,101037.81
2022-12-03T09:01:58.884Z,101035.59
2022-12-03T09:04:29.658Z,101034.34
2022-12-03T09:06:59.072Z,101029.16
2022-12-03T09:09:27.023Z,101027.78
2022-12-03T09:11:55.330Z,101025.31
2022-12-03T09:14:23.826Z,101027.81
2022-12-03T09:16:55.595Z,101026.66
2022-12-03T09:19:24.168Z,101023.00
2022-12-03T09:21:52.139Z,101029.22
2022-12-03T09:24:21.480Z,101023.97
2022-12-03T09:26:49.450Z,101021.31
2022-12-03T09:29:17.380Z,101016.72
2022-12-03T09:31:45.501Z,101014.25
2022-12-03T09:34:13.532Z,101009.50
2022-12-03T09:36:41.462Z,101007.94
2022-12-03T09:39:09.661Z,101010.50
2022-12-03T09:41:39.013Z,101015.19
2022-12-03T09:44:08.742Z,101008.59
2022-12-03T09:46:41.814Z,101006.81
2022-12-03T09:49:15.750Z,101007.72
2022-12-03T09:51:44.209Z,101012.06
2022-12-03T09:54:12.220Z,101007.63
2022-12-03T09:56:41.585Z,101009.25
2022-12-03T09:59:13.940Z,100999.53
2022-12-03T10:01:41.973Z,101004.75
2022-12-03T10:04:10.055Z,101000.25
2022-12-03T10:06:43.922Z,100998.69
2022-12-03T10:09:14.415Z,101001.53
2022-12-03T10:11:43.751Z,100996.78
2022-12-03T10:14:12.001Z,100994.28
2022-12-03T10:16:40.478Z,100993.91
2022-12-03T10:19:10.801Z,100999.97
2022-12-03T10:21:39.515Z,100991.22
2022-12-03T10:24:21.840Z,100990.09
2022-12-03T10:26:51.638Z,100992.78
2022-12-03T10:29:20.307Z,100985.16
2022-12-03T10:31:55.589Z,100989.28
2022-12-03T10:34:27.576Z,100984.84
2022-12-03T10:37:15.858Z,100985.22
2022-12-03T10:39:57.982Z,100991.97
2022-12-03T10:42:27.886Z,100985.69
2022-12-03T10:45:10.311Z,100983.44
2022-12-03T10:47:38.350Z,100977.84
2022-12-03T10:50:07.563Z,100975.13
2022-12-03T10:52:35.574Z,100973.44
2022-12-03T10:55:03.604Z,100978.09
2022-12-03T10:57:32.893Z,100971.59
2022-12-03T11:00:00.840Z,100966.06
2022-12-03T11:02:28.868Z,100978.19
2022-12-03T11:04:56.934Z,100972.34
2022-12-03T11:07:26.208Z,100959.97
2022-12-03T11:09:55.403Z,100970.41
2022-12-03T11:12:24.821Z,100966.22
2022-12-03T11:15:15.658Z,100962.66
2022-12-03T11:17:47.911Z,100972.56
2022-12-03T11:20:52.673Z,100972.44
2022-12-03T11:23:44.855Z,100970.88
2022-12-03T11:26:18.373Z,100965.66
2022-12-03T11:28:54.155Z,100965.78
2022-12-03T11:31:40.793Z,100967.88
2022-12-03T11:34:48.629Z,100969.88
2022-12-03T11:37:25.896Z,100967.34
2022-12-03T11:40:21.274Z,100957.94
2022-12-03T11:42:49.410Z,100973.56
2022-12-03T11:45:19.692Z,100977.69
2022-12-03T11:48:01.250Z,100968.44
2022-12-03T11:50:37.688Z,100959.22
2022-12-03T11:53:13.116Z,100954.19
2022-12-03T11:55:44.340Z,100980.63
2022-12-03T11:58:16.641Z,100983.06
2022-12-03T12:00:49.672Z,100976.25
2022-12-03T12:03:26.927Z,100974.31
2022-12-03T12:06:05.720Z,100984.53
2022-12-03T12:08:33.712Z,100986.84
2022-12-03T12:11:01.782Z,100966.00
2022-12-03T12:13:51.702Z,100989.41
2022-12-03T12:16:42.991Z,100987.97
2022-12-03T12:19:31.922Z,100989.00
2022-12-03T12:22:17.130Z,100988.00
2022-12-03T12:24:47.157Z,100986.03
2022-12-03T12:27:15.927Z,100986.53
2022-12-03T12:29:45.829Z,100986.28
2022-12-03T12:32:15.897Z,100990.69
2022-12-03T12:34:46.676Z,100983.28
2022-12-03T12:37:17.412Z,100986.31
2022-12-03T12:39:45.390Z,100988.34
2022-12-03T12:42:28.584Z,100984.06
2022-12-03T12:44:56.675Z,100988.19
2022-12-03T12:47:24.627Z,100989.75
2022-12-03T12:49:54.305Z,100987.22
2022-12-03T12:52:22.442Z,100986.22
2022-12-03T12:54:50.369Z,100985.53
2022-12-03T12:57:22.169Z,100990.00
2022-12-03T12:59:50.286Z,100987.22
2022-12-03T13:02:41.108Z,100989.16
2022-12-03T13:05:12.860Z,100997.81
2022-12-03T13:07:41.660Z,100991.25
2022-12-03T13:10:36.597Z,100994.66
2022-12-03T13:13:24.308Z,100990.94
2022-12-03T13:15:54.722Z,100996.28
2022-12-03T13:18:27.885Z,100992.38
2022-12-03T13:20:57.259Z,100989.97
2022-12-03T13:23:30.684Z,100993.84
2022-12-03T13:26:08.413Z,100991.91
2022-12-03T13:28:46.599Z,100988.06
2022-12-03T13:31:22.498Z,100981.97
2022-12-03T13:33:50.706Z,100987.59
2022-12-03T13:36:20.725Z,100985.91
2022-12-03T13:38:48.684Z,100991.47
2022-12-03T13:41:31.220Z,100999.63
2022-12-03T13:43:59.908Z,100992.00
2022-12-03T13:46:28.012Z,100993.31
2022-12-03T13:49:00.317Z,100992.72
2022-12-03T13:51:31.691Z,100996.38
2022-12-03T13:53:59.784Z,100999.03
2022-12-03T13:56:28.753Z,100994.44
2022-12-03T13:58:57.374Z,100999.16
2022-12-03T14:01:25.414Z,101003.41
2022-12-03T14:03:53.380Z,100998.06
2022-12-03T14:06:21.328Z,101003.63
2022-12-03T14:08:51.537Z,101008.16
2022-12-03T14:11:33.313Z,101009.97
2022-12-03T14:14:01.263Z,101011.63
2022-12-03T14:16:29.326Z,101016.63
2022-12-03T14:18:57.332Z,101003.28
2022-12-03T14:21:25.261Z,101008.50
2022-12-03T14:23:54.585Z,101008.97
2022-12-03T14:26:22.555Z,101016.84
2022-12-03T14:28:50.505Z,101016.63
2022-12-03T14:31:18.516Z,101015.16
2022-12-03T14:33:46.453Z,101025.56
2022-12-03T14:36:14.406Z,101028.16
2022-12-03T14:38:42.309Z,101022.81
2022-12-03T14:41:25.472Z,101022.03
2022-12-03T14:43:53.402Z,101022.41
2022-12-03T14:46:21.400Z,101027.88
2022-12-03T14:48:49.416Z,101016.22
2022-12-03T14:51:17.334Z,101023.25
2022-12-03T14:53:45.259Z,101025.47
2022-12-03T14:56:14.564Z,101020.88
2022-12-03T14:58:42.473Z,101029.00
2022-12-03T15:01:10.495Z,101018.41
2022-12-03T15:03:38.528Z,101021.34
2022-12-03T15:06:06.807Z,101030.19
2022-12-03T15:08:34.776Z,101026.66
2022-12-03T15:11:02.757Z,101032.25
2022-12-03T15:13:32.097Z,101023.50
2022-12-03T15:16:00.156Z,101029.06
2022-12-03T15:18:28.131Z,101030.06
2022-12-03T15:20:56.374Z,101018.03
2022-12-03T15:23:24.306Z,101026.13
2022-12-03T15:25:52.283Z,100998.72
2022-12-03T15:28:20.243Z,101021.44
2022-12-03T15:30:49.575Z,101022.28
2022-12-03T15:33:17.625Z,101026.88
2022-12-03T15:35:45.546Z,101029.75
2022-12-03T15:38:13.618Z,101027.25
2022-12-03T15:40:41.604Z,101020.31
2022-12-03T15:43:09.579Z,101021.28
2022-12-03T15:45:37.528Z,101032.44
2022-12-03T15:48:07.264Z,101033.66
2022-12-03T15:50:39.890Z,101028.53
2022-12-03T15:53:08.315Z,101034.84
2022-12-03T15:55:36.236Z,101038.16
2022-12-03T15:58:04.203Z,101040.59
2022-12-03T16:00:32.123Z,101032.69
2022-12-03T16:03:00.179Z,101041.78
2022-12-03T16:05:29.505Z,101042.84
2022-12-03T16:07:57.540Z,101044.06
2022-12-03T16:10:25.599Z,101042.50
2022-12-03T16:12:53.548Z,101049.66
2022-12-03T16:15:26.704Z,101051.38
2022-12-03T16:17:55.258Z,101052.22
2022-12-03T16:20:23.223Z,101052.94
2022-12-03T16:22:52.547Z,101058.16
2022-12-03T16:25:20.518Z,101061.78
2022-12-03T16:27:48.481Z,101062.78
2022-12-03T16:30:16.724Z,101058.16
2022-12-03T16:32:44.703Z,101053.56
2022-12-03T16:35:12.640Z,101057.19
2022-12-03T16:37:40.571Z,101026.34
2022-12-03T16:40:11.033Z,101055.25
2022-12-03T16:42:38.974Z,101056.00
2022-12-03T16:45:25.447Z,101057.94
2022-12-03T16:47:53.396Z,101062.03
2022-12-03T16:50:29.179Z,101063.44
2022-12-03T16:53:13.257Z,101069.53
2022-12-03T16:55:42.805Z,101074.88
2022-12-03T16:58:10.728Z,101076.78
2022-12-03T17:00:38.660Z,101072.69
2022-12-03T17:03:06.720Z,101077.25
2022-12-03T17:05:34.747Z,101079.47
2022-12-03T17:08:02.794Z,101081.41
2022-12-03T17:10:30.876Z,101082.13
2022-12-03T17:13:09.257Z,101080.91
2022-12-03T17:15:37.963Z,101077.38
2022-12-03T17:18:06.317Z,101087.94
2022-12-03T17:20:34.579Z,101083.06
2022-12-03T17:23:02.594Z,101077.50
2022-12-03T17:25:30.956Z,101091.34
2022-12-03T17:28:00.273Z,101085.28
2022-12-03T17:30:28.222Z,101079.94
2022-12-03T17:32:56.171Z,101092.19
2022-12-03T17:35:24.135Z,101094.47
2022-12-03T17:37:52.112Z,101096.53
2022-12-03T17:40:20.193Z,101096.63
2022-12-03T17:42:48.123Z,101094.59
2022-12-03T17:45:17.643Z,101090.34
2022-12-03T17:47:45.596Z,101097.84
2022-12-03T17:50:13.791Z,101097.38
2022-12-03T17:52:41.726Z,101105.00
2022-12-03T17:55:13.938Z,101102.25
2022-12-03T17:57:42.396Z,101096.69
2022-12-03T18:00:11.412Z,101104.56
2022-12-03T18:02:40.726Z,101103.25
2022-12-03T18:05:09.264Z,101100.09
2022-12-03T18:07:37.297Z,101103.78
2022-12-03T18:10:06.017Z,101100.78
2022-12-03T18:12:34.011Z,101100.31
2022-12-03T18:15:02.036Z,101101.06
2022-12-03T18:17:29.966Z,101099.84
2022-12-03T18:19:59.339Z,101110.28
2022-12-03T18:22:28.118Z,101095.66
2022-12-03T18:24:56.085Z,101100.78
2022-12-03T18:27:24.046Z,101104.16
2022-12-03T18:29:52.296Z,101101.16
2022-12-03T18:32:28.940Z,101105.44
2022-12-03T18:34:59.136Z,101110.50
2022-12-03T18:37:28.247Z,101114.59
2022-12-03T18:39:56.670Z,101113.38
2022-12-03T18:42:25.013Z,101116.53
2022-12-03T18:44:54.068Z,101112.91
2022-12-03T18:47:22.928Z,101116.81
2022-12-03T18:49:51.030Z,101112.00
2022-12-03T18:52:21.321Z,101104.22
2022-12-03T18:54:49.541Z,101112.00
2022-12-03T18:57:17.556Z,101111.78
2022-12-03T18:59:45.469Z,101113.22
2022-12-03T19:02:38.523Z,101110.44
2022-12-03T19:05:04.024Z,101115.41
2022-12-03T19:07:33.645Z,101116.47
2022-12-03T19:10:01.640Z,101112.22
2022-12-03T19:12:29.939Z,101107.13
2022-12-03T19:14:57.880Z,101110.41
2022-12-03T19:17:27.237Z,101120.75
2022-12-03T19:19:55.709Z,101118.06
2022-12-03T19:22:23.922Z,101114.66
2022-12-03T19:24:53.280Z,101120.97
2022-12-03T19:27:21.270Z,101109.06
2022-12-03T19:29:49.377Z,101120.31
2022-12-03T19:32:17.385Z,101117.22
2022-12-03T19:34:45.335Z,101113.59
2022-12-03T19:37:13.280Z,101122.19
2022-12-03T19:39:41.235Z,101113.69
2022-12-03T19:42:10.605Z,101119.78
2022-12-03T19:44:39.168Z,101121.34
2022-12-03T19:47:07.161Z,101119.53
2022-12-03T19:49:35.313Z,101088.56
2022-12-03T19:52:03.291Z,101118.94
2022-12-03T19:54:31.248Z,101124.41
2022-12-03T19:56:59.240Z,101115.56
2022-12-03T19:59:28.553Z,101113.97
2022-12-03T20:01:56.634Z,101118.34
2022-12-03T20:04:24.727Z,101123.44
2022-12-03T20:06:52.737Z,101123.19
2022-12-03T20:09:22.563Z,101116.16
2022-12-03T20:11:51.277Z,101122.97
2022-12-03T20:14:19.375Z,101119.56
2022-12-03T20:16:48.821Z,101122.97
2022-12-03T20:19:17.617Z,101126.38
2022-12-03T20:21:45.637Z,101124.41
2022-12-03T20:24:14.613Z,101126.13
2022-12-03T20:26:42.651Z,101125.16
2022-12-03T20:29:10.592Z,101131.59
2022-12-03T20:31:38.635Z,101135.56
2022-12-03T20:34:08.259Z,101136.44
2022-12-03T20:36:36.377Z,101133.88
2022-12-03T20:39:05.571Z,101137.97
2022-12-03T20:41:35.470Z,101135.31
2022-12-03T20:44:03.539Z,101137.75
2022-12-03T20:46:32.545Z,101139.69
2022-12-03T20:49:00.636Z,101137.75
2022-12-03T20:51:30.900Z,101146.47
2022-12-03T20:53:59.007Z,101137.50
2022-12-03T20:56:28.153Z,101134.94
2022-12-03T20:58:56.075Z,101141.13
2022-12-03T21:01:25.061Z,101140.16
2022-12-03T21:03:53.158Z,101147.16
2022-12-03T21:06:21.512Z,101144.75
2022-12-03T21:08:50.995Z,101149.84
2022-12-03T21:11:19.852Z,101138.66
2022-12-03T21:13:48.110Z,101134.53
2022-12-03T21:16:17.776Z,101148.28
2022-12-03T21:18:45.935Z,101154.00
2022-12-03T21:21:14.547Z,101149.97
2022-12-03T21:23:42.568Z,101154.22
2022-12-03T21:26:13.027Z,101143.16
2022-12-03T21:28:41.626Z,101138.78
2022-12-03T21:31:11.105Z,101135.25
2022-12-03T21:33:39.508Z,101139.63
2022-12-03T21:36:08.113Z,101150.34
2022-12-03T21:38:36.250Z,101148.09
2022-12-03T21:41:04.435Z,101141.91
2022-12-03T21:43:34.057Z,101130.63
2022-12-03T21:46:02.123Z,101139.75
2022-12-03T21:48:30.233Z,101156.38
2022-12-03T21:51:01.519Z,101145.50
2022-12-03T21:53:29.486Z,101147.41
2022-12-03T21:55:57.422Z,101142.56
2022-12-03T21:58:25.519Z,101139.91
2022-12-03T22:00:54.918Z,101129.94
2022-12-03T22:03:22.903Z,101122.88
2022-12-03T22:05:50.883Z,101128.97
2022-12-03T22:08:19.220Z,101125.81
2022-12-03T22:10:47.181Z,101129.50
2022-12-03T22:13:15.101Z,101122.19
2022-12-03T22:15:43.077Z,101122.94
2022-12-03T22:18:12.467Z,101123.91
2022-12-03T22:20:42.876Z,101123.16
2022-12-03T22:23:10.814Z,101120.75
2022-12-03T22:25:38.740Z,101120.97
2022-12-03T22:28:06.659Z,101122.13
2022-12-03T22:30:34.695Z,101120.09
2022-12-03T22:33:02.650Z,101126.28
2022-12-03T22:35:31.989Z,101118.06
2022-12-03T22:37:59.913Z,101122.19
2022-12-03T22:40:27.870Z,101127.53
2022-12-03T22:42:55.791Z,101128.28
2022-12-03T22:45:23.772Z,101119.03
2022-12-03T22:47:51.713Z,101121.59
2022-12-03T22:50:19.645Z,101117.81
2022-12-03T22:52:48.974Z,101120.31
2022-12-03T22:55:16.926Z,101121.19
2022-12-03T22:57:44.896Z,101117.56
2022-12-03T23:00:13.950Z,101129.06
2022-12-03T23:02:41.973Z,101124.22
2022-12-03T23:05:10.284Z,101123.34
2022-12-03T23:07:38.271Z,101120.91
2022-12-03T23:10:09.146Z,101122.13
2022-12-03T23:12:37.698Z,101120.16
2022-12-03T23:15:06.862Z,101125.50
2022-12-03T23:17:34.780Z,101126.78
2022-12-03T23:20:03.578Z,101125.66
2022-12-03T23:22:31.545Z,101130.41
2022-12-03T23:24:59.508Z,101124.00
2022-12-03T23:27:28.814Z,101084.72
2022-12-03T23:29:56.943Z,101114.38
2022-12-03T23:32:25.092Z,101114.38
2022-12-03T23:34:54.327Z,101117.16
2022-12-03T23:37:22.912Z,101114.59
2022-12-03T23:39:50.860Z,101114.84
2022-12-03T23:42:18.789Z,101104.16
2022-12-03T23:44:48.097Z,101126.03
2022-12-03T23:47:16.079Z,101124.66
2022-12-03T23:49:44.109Z,101127.19
2022-12-03T23:52:12.097Z,101130.41
2022-12-03T23:54:40.052Z,101131.47
2022-12-03T23:57:08.038Z,101130.41
2022-12-03T23:59:35.987Z,101134.03
